Time;durP1;ratioP1;P1;durP2;ratioP2;P2;SDS_P1;SDS_P2;PMS_P1;PMS_P2;Temp;Humidity;BMP_temperature;BMP_pressure;BME280_temperature;BME280_humidity;BME280_pressure;Samples;Min_cycle;Max_cycle;Signal;HPM_P1;HPM_P2
2022/09/08 00:00:09;;;;;;;18.75;10.98;;;;;;;8.62;54.86;100567.81;1689119;84;21005;-69
2022/09/08 00:02:36;;;;;;;17.52;11.35;;;;;;;8.60;54.61;100571.87;1700635;84;21828;-69
2022/09/08 00:05:05;;;;;;;22.22;12.13;;;;;;;8.58;54.69;100567.16;1693348;84;20960;-70
2022/09/08 00:07:32;;;;;;;18.80;11.35;;;;;;;8.57;54.72;100564.62;1698076;83;21085;-69
2022/09/08 00:10:00;;;;;;;19.17;11.70;;;;;;;8.54;54.69;100565.69;1700656;84;21524;-69
2022/09/08 00:12:29;;;;;;;23.27;12.13;;;;;;;8.52;54.79;100561.01;1700797;84;21510;-69
2022/09/08 00:14:56;;;;;;;24.70;12.50;;;;;;;8.51;54.91;100564.59;1684620;84;22470;-69
2022/09/08 00:17:23;;;;;;;23.50;12.23;;;;;;;8.50;54.93;100552.37;1654554;84;21086;-69
2022/09/08 00:19:49;;;;;;;20.35;11.68;;;;;;;8.50;54.93;100555.48;1688307;84;20967;-69
2022/09/08 00:22:16;;;;;;;20.97;11.57;;;;;;;8.48;54.84;100558.20;1672422;85;20987;-69
2022/09/08 00:24:42;;;;;;;19.05;11.28;;;;;;;8.46;54.83;100554.83;1671239;83;21547;-69
2022/09/08 00:27:09;;;;;;;23.70;11.85;;;;;;;8.45;54.96;100559.73;1670457;84;22488;-69
2022/09/08 00:29:36;;;;;;;21.87;12.33;;;;;;;8.44;54.93;100560.68;1694772;84;21067;-69
2022/09/08 00:32:04;;;;;;;25.25;12.07;;;;;;;8.43;54.90;100551.58;1677170;85;21094;-69
2022/09/08 00:34:31;;;;;;;21.35;11.60;;;;;;;8.40;54.92;100555.27;1665794;85;21451;-68
2022/09/08 00:36:58;;;;;;;18.70;11.65;;;;;;;8.37;54.95;100548.03;1661770;85;21071;-71
2022/09/08 00:39:25;;;;;;;23.65;12.68;;;;;;;8.32;55.02;100545.22;1676717;85;21953;-70
2022/09/08 00:41:51;;;;;;;20.85;11.70;;;;;;;8.32;54.90;100551.80;1660043;86;20977;-70
2022/09/08 00:44:49;;;;;;;18.35;11.25;;;;;;;8.32;54.90;100548.32;1666950;85;21011;-69
2022/09/08 00:47:21;;;;;;;21.37;12.23;;;;;;;8.31;54.92;100541.38;1674363;84;20980;-70
2022/09/08 00:49:53;;;;;;;19.57;11.53;;;;;;;8.31;54.89;100546.16;1681278;85;21498;-70
2022/09/08 00:52:19;;;;;;;23.70;11.73;;;;;;;8.27;54.93;100542.51;1685694;84;21863;-70
2022/09/08 00:54:46;;;;;;;21.90;12.03;;;;;;;8.24;54.89;100540.09;1672989;83;21019;-70
2022/09/08 00:57:13;;;;;;;18.85;11.83;;;;;;;8.21;54.88;100546.89;1669448;85;21023;-70
2022/09/08 00:59:40;;;;;;;22.55;11.63;;;;;;;8.18;54.74;100540.49;1660057;85;21086;-70
2022/09/08 01:02:24;;;;;;;17.15;11.30;;;;;;;8.15;54.66;100542.86;1660318;86;21031;-70
2022/09/08 01:04:53;;;;;;;18.20;11.15;;;;;;;8.14;54.69;100536.39;1671394;85;21691;-70
2022/09/08 01:13:35;;;;;;;20.55;12.00;;;;;;;8.06;55.13;100534.73;1667147;85;20976;-70
2022/09/08 01:16:05;;;;;;;18.85;12.03;;;;;;;8.01;55.10;100531.95;1665134;85;21064;-70
2022/09/08 01:18:36;;;;;;;20.43;11.18;;;;;;;8.00;55.04;100531.55;1674721;85;21487;-70
2022/09/08 01:21:26;;;;;;;21.33;11.57;;;;;;;8.00;55.04;100524.14;1687780;83;20960;-71
2022/09/08 01:24:11;;;;;;;17.75;10.75;;;;;;;7.98;55.07;100520.30;1674774;85;20976;-69
2022/09/08 01:27:02;;;;;;;18.60;11.68;;;;;;;7.98;55.13;100518.98;1650859;83;21066;-69
2022/09/08 01:29:29;;;;;;;18.77;11.33;;;;;;;7.95;55.09;100520.52;1680155;84;37220;-69
2022/09/08 01:31:56;;;;;;;19.82;11.78;;;;;;;7.95;55.21;100530.19;1676776;84;21859;-70
2022/09/08 01:34:23;;;;;;;18.23;10.90;;;;;;;7.92;55.23;100514.15;1696610;83;20990;-71
2022/09/08 01:36:49;;;;;;;19.02;11.63;;;;;;;7.93;55.24;100514.52;1680230;83;20958;-70
2022/09/08 01:39:16;;;;;;;22.10;11.78;;;;;;;7.94;55.25;100516.20;1699256;83;20994;-70
2022/09/08 01:41:43;;;;;;;23.45;10.95;;;;;;;7.96;55.44;100512.14;1675718;83;20980;-71
2022/09/08 01:44:09;;;;;;;21.27;11.12;;;;;;;7.97;55.57;100509.88;1671394;83;21963;-71
2022/09/08 01:46:37;;;;;;;18.55;11.20;;;;;;;7.99;55.57;100509.30;1666135;84;21028;-70
2022/09/08 01:49:04;;;;;;;20.60;11.65;;;;;;;7.98;55.50;100513.72;1683566;85;21020;-72
2022/09/08 01:51:30;;;;;;;16.02;10.98;;;;;;;7.95;55.56;100515.25;1681889;85;21122;-70
2022/09/08 01:53:57;;;;;;;17.23;11.30;;;;;;;7.92;55.66;100510.20;1660436;85;21012;-70
2022/09/08 01:56:24;;;;;;;18.42;10.95;;;;;;;7.91;55.78;100508.97;1670507;85;21945;-71
2022/09/08 01:58:51;;;;;;;20.85;11.38;;;;;;;7.92;55.86;100515.47;1680007;83;20924;-70
2022/09/08 02:01:17;;;;;;;18.95;11.28;;;;;;;7.93;55.95;100511.89;1678549;84;20994;-70
2022/09/08 02:03:45;;;;;;;19.80;11.03;;;;;;;7.94;55.96;100505.68;1675167;83;21473;-71
2022/09/08 02:06:11;;;;;;;20.40;11.50;;;;;;;7.94;55.96;100503.05;1699274;83;20943;-70
2022/09/08 02:08:39;;;;;;;18.32;11.30;;;;;;;7.95;55.98;100490.27;1665061;85;21787;-70
2022/09/08 02:11:06;;;;;;;22.62;11.28;;;;;;;7.95;55.98;100490.73;1678624;84;20974;-71
2022/09/08 02:13:33;;;;;;;18.87;11.93;;;;;;;7.95;56.06;100489.42;1683405;83;21428;-70
2022/09/08 02:16:04;;;;;;;17.40;11.83;;;;;;;7.93;56.16;100491.32;1676369;83;20984;-70
2022/09/08 02:18:31;;;;;;;20.25;10.98;;;;;;;7.89;56.27;100491.98;1687947;83;21475;-70
2022/09/08 02:21:07;;;;;;;19.07;11.80;;;;;;;7.87;56.47;100493.88;1687876;83;21858;-70
2022/09/08 02:23:35;;;;;;;19.67;11.73;;;;;;;7.85;56.57;100490.98;1667002;85;20943;-70
2022/09/08 02:26:03;;;;;;;17.10;10.82;;;;;;;7.83;56.71;100491.56;1660478;85;21071;-70
2022/09/08 02:28:30;;;;;;;18.60;11.45;;;;;;;7.82;56.77;100499.09;1661682;85;21032;-71
2022/09/08 02:31:01;;;;;;;17.45;11.93;;;;;;;7.81;56.82;100491.63;1670104;85;21031;-71
2022/09/08 02:33:29;;;;;;;16.70;10.95;;;;;;;7.81;56.85;100498.21;1678995;85;22643;-70
2022/09/08 02:35:55;;;;;;;17.85;10.55;;;;;;;7.80;56.91;100499.16;1683817;85;21111;-71
2022/09/08 02:38:23;;;;;;;19.85;11.05;;;;;;;7.81;56.99;100495.58;1674219;85;21647;-71
2022/09/08 02:40:49;;;;;;;18.50;10.85;;;;;;;7.81;57.04;100499.52;1685968;83;21011;-70
2022/09/08 02:43:16;;;;;;;19.35;11.18;;;;;;;7.81;57.11;100496.89;1667791;83;21062;-71
2022/09/08 02:45:42;;;;;;;23.02;10.50;;;;;;;7.82;57.20;100495.14;1668097;85;21824;-72
2022/09/08 02:48:09;;;;;;;19.95;11.28;;;;;;;7.82;57.26;100506.97;1673105;83;21008;-71
2022/09/08 02:50:37;;;;;;;17.60;11.30;;;;;;;7.84;57.34;100501.98;1675317;84;21027;-71
2022/09/08 02:53:04;;;;;;;17.32;10.85;;;;;;;7.89;57.66;100508.23;1676746;85;20984;-71
2022/09/08 02:55:31;;;;;;;18.02;11.10;;;;;;;7.90;57.56;100511.23;1678088;85;20971;-70
2022/09/08 02:57:57;;;;;;;18.50;10.75;;;;;;;7.88;57.71;100507.39;1674280;84;21944;-70
2022/09/08 03:00:30;;;;;;;16.57;10.50;;;;;;;7.89;57.74;100502.97;1661521;83;21503;-71
2022/09/08 03:02:52;;;;;;;17.57;10.10;;;;;;;7.89;57.82;100504.28;1661993;85;20988;-70
2022/09/08 03:05:18;;;;;;;18.32;9.98;;;;;;;7.90;57.94;100505.97;1664242;85;21062;-70
2022/09/08 03:07:45;;;;;;;20.88;11.18;;;;;;;7.90;58.01;100500.70;1660953;85;21054;-71
2022/09/08 03:10:11;;;;;;;16.60;10.55;;;;;;;7.90;58.06;100491.03;1678239;85;21836;-70
2022/09/08 03:12:38;;;;;;;18.65;10.55;;;;;;;7.91;58.17;100501.95;1673561;84;20901;-70
2022/09/08 03:15:07;;;;;;;15.43;10.25;;;;;;;7.93;58.29;100495.27;1661285;85;21058;-70
2022/09/08 03:17:34;;;;;;;20.92;10.28;;;;;;;7.94;58.46;100506.16;1684691;84;21052;-70
2022/09/08 03:20:01;;;;;;;15.80;10.00;;;;;;;7.95;58.58;100501.27;1682927;84;21097;-69
2022/09/08 03:22:27;;;;;;;17.20;9.35;;;;;;;7.98;58.63;100510.25;1665683;85;21769;-70
2022/09/08 03:24:53;;;;;;;18.85;10.13;;;;;;;8.00;58.67;100506.56;1677727;83;21424;-70
2022/09/08 03:27:20;;;;;;;14.83;9.28;;;;;;;8.00;58.77;100504.41;1663456;85;21439;-70
2022/09/08 03:29:46;;;;;;;16.25;9.20;;;;;;;7.98;58.81;100505.83;1678557;84;21035;-70
2022/09/08 03:32:13;;;;;;;18.48;10.10;;;;;;;7.98;58.97;100501.89;1681475;85;21067;-69
2022/09/08 03:34:39;;;;;;;14.93;9.18;;;;;;;8.00;59.11;100500.47;1684721;85;21933;-70
2022/09/08 03:37:06;;;;;;;16.80;8.98;;;;;;;8.00;59.16;100507.88;1676191;85;21048;-70
2022/09/08 03:39:33;;;;;;;15.60;9.30;;;;;;;8.02;59.25;100503.39;1684749;85;20980;-70
2022/09/08 03:42:00;;;;;;;17.80;9.18;;;;;;;8.06;59.34;100505.80;1673454;84;21070;-70
2022/09/08 03:44:26;;;;;;;16.73;8.85;;;;;;;8.10;59.44;100508.11;1669346;85;21522;-70
2022/09/08 03:46:53;;;;;;;17.07;9.48;;;;;;;8.15;59.56;100510.45;1675499;85;21832;-70
2022/09/08 03:49:20;;;;;;;17.10;9.85;;;;;;;8.20;59.64;100512.28;1681557;85;21058;-70
2022/09/08 03:51:47;;;;;;;19.87;10.18;;;;;;;8.25;59.72;100510.20;1666191;84;21027;-71
2022/09/08 03:56:59;;;;;;;18.87;10.10;;;;;;;8.34;59.91;100517.47;1663286;85;21505;-70
2022/09/08 03:59:25;;;;;;;15.48;9.58;;;;;;;8.38;59.97;100516.34;1670241;83;21750;-71
2022/09/08 04:01:53;;;;;;;21.95;10.20;;;;;;;8.42;60.00;100518.30;1671105;85;21001;-70
2022/09/08 04:04:22;;;;;;;19.15;11.15;;;;;;;8.46;60.07;100514.50;1676004;85;21135;-70
2022/09/08 04:06:50;;;;;;;18.67;9.80;;;;;;;8.49;60.07;100515.60;1661776;85;21024;-70
2022/09/08 04:09:18;;;;;;;17.37;10.10;;;;;;;8.53;60.08;100523.67;1683081;83;21016;-70
2022/09/08 04:11:44;;;;;;;18.40;9.85;;;;;;;8.56;60.13;100528.72;1681071;84;22338;-71
2022/09/08 04:14:11;;;;;;;19.30;10.32;;;;;;;8.59;60.12;100529.84;1675073;85;21012;-71
2022/09/08 04:16:40;;;;;;;14.25;9.03;;;;;;;8.63;60.24;100521.25;1661164;85;21007;-71
2022/09/08 04:19:07;;;;;;;12.37;8.35;;;;;;;8.68;60.36;100519.97;1678221;85;21063;-71
2022/09/08 04:21:33;;;;;;;15.10;9.15;;;;;;;8.77;60.47;100518.02;1645486;86;20968;-71
2022/09/08 04:24:01;;;;;;;18.30;9.05;;;;;;;8.88;60.46;100520.77;1653362;85;21796;-71
2022/09/08 04:26:27;;;;;;;16.37;9.60;;;;;;;9.00;60.37;100519.54;1663090;85;21094;-71
2022/09/08 04:28:54;;;;;;;18.73;9.08;;;;;;;9.10;60.35;100522.73;1675317;84;21024;-71
2022/09/08 04:31:20;;;;;;;16.73;8.05;;;;;;;9.21;60.31;100518.48;1681732;84;20964;-71
2022/09/08 04:33:47;;;;;;;22.60;8.88;;;;;;;9.31;60.11;100518.20;1683547;83;20998;-71
2022/09/08 04:36:17;;;;;;;16.95;8.75;;;;;;;9.39;60.09;100521.13;1692342;83;21902;-70
2022/09/08 04:38:44;;;;;;;15.45;8.15;;;;;;;9.48;60.01;100513.88;1703127;83;20967;-69
2022/09/08 04:41:14;;;;;;;13.85;7.95;;;;;;;9.59;59.94;100519.67;1672107;85;21058;-70
2022/09/08 04:43:40;;;;;;;13.35;7.50;;;;;;;9.69;59.90;100514.09;1683176;85;21036;-70
2022/09/08 04:46:10;;;;;;;14.20;7.62;;;;;;;9.78;59.88;100518.70;1667976;85;21008;-70
2022/09/08 04:48:37;;;;;;;13.58;7.28;;;;;;;9.89;59.91;100517.42;1675059;85;21940;-70
2022/09/08 04:51:06;;;;;;;11.00;6.53;;;;;;;9.98;60.00;100516.73;1672303;84;21086;-72
2022/09/08 04:53:36;;;;;;;13.30;7.33;;;;;;;10.11;60.05;100519.28;1672219;85;21043;-70
2022/09/08 04:56:04;;;;;;;13.62;6.78;;;;;;;10.21;59.96;100519.44;1681365;85;21031;-70
2022/09/08 04:58:33;;;;;;;10.20;6.47;;;;;;;10.32;59.93;100516.38;1666163;84;20964;-71
2022/09/08 05:01:09;;;;;;;14.15;5.53;;;;;;;10.45;59.88;100516.30;1672220;84;21783;-70
2022/09/08 05:03:36;;;;;;;7.50;5.40;;;;;;;10.58;59.78;100510.91;1649081;85;21238;-70
2022/09/08 05:06:05;;;;;;;11.45;5.75;;;;;;;10.76;59.61;100508.64;1665238;85;21066;-71
2022/09/08 05:08:32;;;;;;;9.73;5.30;;;;;;;10.94;59.44;100510.33;1663009;85;20991;-71
2022/09/08 05:10:59;;;;;;;11.00;5.85;;;;;;;11.13;59.17;100513.20;1645114;85;21020;-71
2022/09/08 05:13:26;;;;;;;13.48;5.58;;;;;;;11.30;58.90;100508.73;1676481;85;21881;-71
2022/09/08 05:16:02;;;;;;;9.95;5.30;;;;;;;11.49;58.65;100503.28;1671333;83;21117;-70
2022/09/08 05:18:29;;;;;;;13.30;4.78;;;;;;;11.65;58.40;100506.34;1676696;85;21079;-70
2022/09/08 05:20:55;;;;;;;13.78;5.00;;;;;;;11.79;58.16;100511.36;1669210;85;21035;-69
2022/09/08 05:23:22;;;;;;;16.27;5.50;;;;;;;11.91;58.06;100510.86;1669715;85;21091;-69
2022/09/08 05:26:04;;;;;;;11.85;5.08;;;;;;;12.01;57.94;100511.28;1683951;84;21845;-70
2022/09/08 05:28:31;;;;;;;11.90;4.92;;;;;;;12.11;57.92;100518.47;1682203;83;21500;-71
2022/09/08 05:30:59;;;;;;;9.00;5.17;;;;;;;12.17;57.62;100511.34;1668784;85;21090;-70
2022/09/08 05:33:26;;;;;;;8.50;4.97;;;;;;;12.22;57.37;100515.27;1705058;83;21052;-70
2022/09/08 05:35:52;;;;;;;14.73;5.28;;;;;;;12.28;57.15;100511.28;1684033;84;20979;-70
2022/09/08 05:38:20;;;;;;;12.58;5.20;;;;;;;12.32;56.90;100508.70;1704089;82;22000;-70
2022/09/08 05:40:46;;;;;;;8.83;5.15;;;;;;;12.38;56.88;100512.17;1711506;83;20989;-70
2022/09/08 05:43:14;;;;;;;7.92;4.50;;;;;;;12.45;57.01;100515.13;1710132;82;21012;-71
2022/09/08 05:45:45;;;;;;;9.43;4.53;;;;;;;12.51;57.05;100507.50;1693445;83;21614;-70
2022/09/08 05:48:13;;;;;;;7.42;4.40;;;;;;;12.61;57.21;100514.18;1685872;83;21014;-70
2022/09/08 05:50:44;;;;;;;8.13;4.20;;;;;;;12.69;57.26;100513.53;1680693;84;21862;-70
2022/09/08 05:53:12;;;;;;;8.10;4.60;;;;;;;12.75;57.20;100514.34;1690339;83;20963;-70
2022/09/08 05:55:41;;;;;;;11.08;4.90;;;;;;;12.78;56.92;100517.55;1678323;84;21098;-70
2022/09/08 05:58:10;;;;;;;7.47;4.62;;;;;;;12.80;56.83;100514.27;1686174;84;21094;-70
2022/09/08 06:00:37;;;;;;;8.80;4.70;;;;;;;12.81;56.88;100516.44;1656262;84;21041;-69
2022/09/08 06:03:06;;;;;;;11.68;5.47;;;;;;;12.83;56.81;100517.14;1713892;82;21072;-70
2022/09/08 06:05:34;;;;;;;10.10;4.92;;;;;;;12.86;56.87;100515.57;1706041;82;20933;-70
2022/09/08 06:08:02;;;;;;;7.75;4.62;;;;;;;12.93;57.03;100520.67;1652213;84;21077;-70
2022/09/08 06:10:35;;;;;;;9.15;5.05;;;;;;;13.05;57.24;100522.27;1707773;82;21018;-69
2022/09/08 06:12:59;;;;;;;7.95;4.65;;;;;;;13.20;57.17;100521.92;1701824;83;21408;-69
2022/09/08 06:15:27;;;;;;;11.73;5.75;;;;;;;13.33;57.25;100515.91;1716924;82;21826;-70
2022/09/08 06:17:53;;;;;;;11.28;5.15;;;;;;;13.45;56.99;100509.02;1711345;82;21448;-69
2022/09/08 06:20:20;;;;;;;11.75;5.40;;;;;;;13.59;57.03;100522.84;1698499;82;21415;-70
2022/09/08 06:22:46;;;;;;;10.65;5.60;;;;;;;13.68;56.71;100520.69;1681995;84;21963;-70
2022/09/08 06:25:14;;;;;;;10.35;5.78;;;;;;;13.72;56.62;100520.30;1685045;84;21042;-72
2022/09/08 06:27:52;;;;;;;8.65;5.90;;;;;;;13.76;56.84;100523.50;1687199;83;22380;-71
2022/09/08 06:30:19;;;;;;;13.53;7.17;;;;;;;13.84;57.09;100528.13;1686021;84;21105;-71
2022/09/08 06:32:57;;;;;;;17.48;9.88;;;;;;;13.92;57.12;100535.75;1677013;84;21455;-71
2022/09/08 06:35:55;;;;;;;17.37;10.05;;;;;;;13.99;57.17;100544.84;1685724;84;21605;-71
2022/09/08 06:38:36;;;;;;;17.77;11.10;;;;;;;14.06;57.45;100542.45;1674465;83;20972;-71
2022/09/08 06:41:29;;;;;;;18.75;11.50;;;;;;;14.24;57.65;100552.72;1671215;85;21740;-69
2022/09/08 06:44:05;;;;;;;13.93;8.00;;;;;;;14.46;57.54;100546.28;1666896;83;21102;-69
2022/09/08 06:46:34;;;;;;;13.50;6.85;;;;;;;14.69;57.48;100544.16;1667921;85;22261;-70
2022/09/08 06:49:01;;;;;;;9.33;5.70;;;;;;;14.81;57.21;100536.84;1665224;85;21059;-71
2022/09/08 06:51:52;;;;;;;12.45;5.53;;;;;;;14.93;57.29;100531.67;1664071;84;21537;-72
2022/09/08 06:54:51;;;;;;;12.53;6.55;;;;;;;15.06;57.25;100535.35;1669550;85;21897;-70
2022/09/08 06:57:42;;;;;;;11.50;6.70;;;;;;;15.24;57.15;100536.22;1694426;82;21538;-70
2022/09/08 07:00:24;;;;;;;9.18;5.92;;;;;;;15.47;56.82;100540.66;1698091;84;21072;-71
2022/09/08 07:03:18;;;;;;;14.13;6.55;;;;;;;15.68;56.43;100539.09;1679984;83;20951;-70
2022/09/08 07:06:05;;;;;;;12.93;7.15;;;;;;;15.82;55.77;100541.22;1677789;85;21754;-71
2022/09/08 07:09:11;;;;;;;11.90;6.95;;;;;;;15.82;55.53;100550.53;1676097;85;21809;-70
2022/09/08 07:11:54;;;;;;;13.40;7.97;;;;;;;15.83;55.68;100554.06;1671795;84;21098;-70
2022/09/08 07:15:04;;;;;;;13.85;6.78;;;;;;;15.78;55.61;100561.66;1679465;84;21025;-72
2022/09/08 07:17:50;;;;;;;10.03;6.17;;;;;;;15.75;55.93;100568.13;1657927;85;20973;-70
2022/09/08 07:20:17;;;;;;;11.90;5.20;;;;;;;15.88;56.25;100565.92;1666919;85;21102;-71
2022/09/08 07:23:14;;;;;;;12.37;5.28;;;;;;;16.00;56.04;100570.53;1671893;85;21923;-71
2022/09/08 07:26:02;;;;;;;12.75;5.55;;;;;;;16.07;55.92;100568.94;1670021;85;21017;-70
2022/09/08 07:28:33;;;;;;;12.45;5.67;;;;;;;16.16;55.96;100573.84;1678585;83;21058;-71
2022/09/08 07:31:02;;;;;;;11.88;4.65;;;;;;;16.24;55.80;100565.93;1668822;85;21071;-71
2022/09/08 07:33:40;;;;;;;8.15;4.95;;;;;;;16.30;55.94;100566.63;1645736;85;21040;-72
2022/09/08 07:36:27;;;;;;;10.03;4.80;;;;;;;16.41;55.93;100562.91;1681348;84;22595;-71
2022/09/08 07:38:57;;;;;;;7.62;4.40;;;;;;;16.59;55.98;100558.35;1674813;85;21427;-71
2022/09/08 07:41:50;;;;;;;12.63;5.03;;;;;;;16.87;55.89;100561.73;1680491;85;21066;-72
2022/09/08 07:44:17;;;;;;;9.83;5.00;;;;;;;17.09;55.30;100557.70;1665339;85;21091;-70
2022/09/08 07:47:16;;;;;;;16.65;5.03;;;;;;;17.27;54.96;100542.91;1669812;84;21016;-70
2022/09/08 07:50:00;;;;;;;9.80;4.83;;;;;;;17.41;54.54;100547.66;1671501;83;22328;-70
2022/09/08 07:53:00;;;;;;;10.48;4.53;;;;;;;17.56;54.49;100547.85;1669799;85;20947;-71
2022/09/08 07:55:38;;;;;;;12.63;4.90;;;;;;;17.71;54.13;100550.27;1669401;84;21055;-71
2022/09/08 07:58:53;;;;;;;9.75;4.87;;;;;;;17.88;53.61;100544.47;1681042;83;21019;-72
2022/09/08 08:02:51;;;;;;;17.60;4.90;;;;;;;18.03;53.65;100544.13;1672457;83;21626;-71
2022/09/08 08:06:07;;;;;;;8.13;4.50;;;;;;;18.29;53.57;100543.98;1660753;85;21067;-71
2022/09/08 08:09:30;;;;;;;16.45;9.48;;;;;;;18.40;52.90;100540.12;1669440;83;21433;-71
2022/09/08 08:12:32;;;;;;;14.10;7.28;;;;;;;18.48;52.78;100548.16;1669182;85;21008;-72
2022/09/08 08:15:26;;;;;;;10.90;4.90;;;;;;;18.49;52.75;100537.78;1660322;85;21126;-71
2022/09/08 08:18:26;;;;;;;13.28;7.70;;;;;;;18.52;53.00;100540.95;1671166;85;20952;-71
2022/09/08 08:21:18;;;;;;;13.28;7.95;;;;;;;18.48;53.02;100538.79;1673784;83;22906;-72
2022/09/08 08:24:13;;;;;;;13.53;5.95;;;;;;;18.41;53.46;100531.94;1661924;85;21402;-71
2022/09/08 08:27:23;;;;;;;19.87;6.40;;;;;;;18.39;53.55;100535.28;1658548;85;21415;-72
2022/09/08 08:30:17;;;;;;;12.40;4.85;;;;;;;18.44;53.73;100529.45;1662559;85;21028;-73
2022/09/08 08:32:53;;;;;;;7.80;4.37;;;;;;;18.45;53.60;100527.10;1691445;83;20985;-72
2022/09/08 08:35:34;;;;;;;9.50;3.77;;;;;;;18.46;53.44;100526.09;1687498;84;21960;-73
2022/09/08 08:38:01;;;;;;;6.78;3.83;;;;;;;18.49;53.54;100523.07;1684737;84;21219;-73
2022/09/08 08:40:40;;;;;;;8.48;4.20;;;;;;;18.55;53.50;100519.23;1691549;83;21054;-75
2022/09/08 08:43:30;;;;;;;7.85;4.00;;;;;;;18.61;53.44;100516.36;1693021;83;21086;-73
2022/09/08 08:46:18;;;;;;;7.85;4.03;;;;;;;18.71;53.34;100513.02;1681324;84;21024;-72
2022/09/08 08:49:35;;;;;;;13.68;4.42;;;;;;;18.86;53.29;100511.31;1657128;85;21542;-72
2022/09/08 08:52:10;;;;;;;9.45;4.10;;;;;;;19.07;53.05;100505.89;1701166;83;21028;-73
2022/09/08 08:55:12;;;;;;;7.55;4.25;;;;;;;19.21;52.67;100511.03;1678522;84;21520;-73
2022/09/08 08:58:04;;;;;;;10.05;4.10;;;;;;;19.28;52.08;100508.80;1672858;84;21066;-72
2022/09/08 09:00:42;;;;;;;8.18;3.80;;;;;;;19.28;52.13;100507.97;1688965;83;21042;-73
2022/09/08 09:03:24;;;;;;;11.50;4.35;;;;;;;19.33;52.30;100505.61;1662089;83;21960;-73
2022/09/08 09:06:01;;;;;;;7.85;4.67;;;;;;;19.43;52.35;100507.06;1671199;84;20986;-75
2022/09/08 09:08:55;;;;;;;8.70;4.05;;;;;;;19.53;52.32;100498.80;1673445;84;21461;-74
2022/09/08 09:12:03;;;;;;;10.13;4.37;;;;;;;19.58;51.79;100496.95;1683432;84;22291;-75
2022/09/08 09:15:07;;;;;;;8.93;4.30;;;;;;;19.59;51.95;100495.92;1672701;84;21019;-74
2022/09/08 09:17:55;;;;;;;5.60;3.95;;;;;;;19.67;51.77;100491.36;1672695;84;21952;-74
2022/09/08 09:20:39;;;;;;;7.25;4.22;;;;;;;19.80;52.06;100490.78;1685068;84;21545;-74
2022/09/08 09:23:13;;;;;;;10.45;4.83;;;;;;;19.94;51.18;100492.67;1676913;84;21105;-75
2022/09/08 09:25:58;;;;;;;9.73;4.33;;;;;;;19.94;50.89;100488.66;1672396;84;21027;-74
2022/09/08 09:28:47;;;;;;;9.53;4.28;;;;;;;19.92;50.97;100488.51;1673268;84;20979;-74
2022/09/08 09:31:58;;;;;;;9.18;4.50;;;;;;;19.87;51.24;100491.71;1678087;83;21787;-74
2022/09/08 09:34:43;;;;;;;11.05;4.35;;;;;;;19.85;51.40;100501.78;1672982;84;21025;-73
2022/09/08 09:37:23;;;;;;;10.53;4.67;;;;;;;19.78;51.73;100496.80;1686569;84;21019;-72
2022/09/08 09:40:13;;;;;;;8.98;5.70;;;;;;;19.83;52.42;100499.80;1672346;84;21047;-73
2022/09/08 09:43:11;;;;;;;17.37;10.05;;;;;;;19.94;52.38;100496.69;1675540;84;20971;-73
2022/09/08 09:46:21;;;;;;;11.55;5.47;;;;;;;20.02;52.04;100509.20;1677084;84;21972;-73
2022/09/08 09:49:40;;;;;;;8.63;4.70;;;;;;;20.01;52.23;100501.67;1679069;83;21105;-73
2022/09/08 09:52:33;;;;;;;10.10;4.78;;;;;;;20.07;52.35;100499.27;1695057;84;21130;-74
2022/09/08 09:55:09;;;;;;;9.28;4.60;;;;;;;20.20;52.01;100505.70;1690482;83;21477;-73
2022/09/08 09:57:56;;;;;;;7.50;4.05;;;;;;;20.38;51.76;100497.84;1674289;84;20977;-74
2022/09/08 10:00:28;;;;;;;7.72;4.42;;;;;;;20.61;51.37;100491.92;1692678;84;21860;-73
2022/09/08 10:03:34;;;;;;;10.10;4.12;;;;;;;20.90;51.28;100484.37;1693832;83;20986;-72
2022/09/08 10:06:45;;;;;;;5.87;3.90;;;;;;;21.24;50.43;100480.27;1691129;84;20988;-73
2022/09/08 10:09:23;;;;;;;8.50;3.77;;;;;;;21.71;50.65;100484.66;1673559;84;21075;-73
2022/09/08 10:12:14;;;;;;;8.90;3.83;;;;;;;22.37;49.51;100478.20;1674248;84;21032;-73
2022/09/08 10:15:11;;;;;;;9.68;4.15;;;;;;;22.76;47.96;100474.41;1691118;83;22351;-74
2022/09/08 10:18:34;;;;;;;7.15;4.05;;;;;;;22.81;46.74;100476.52;1673119;84;21441;-73
2022/09/08 10:21:32;;;;;;;11.33;4.60;;;;;;;22.61;46.65;100472.88;1693823;83;20974;-73
2022/09/08 10:24:31;;;;;;;11.12;4.87;;;;;;;22.36;46.66;100467.95;1700582;83;21513;-72
2022/09/08 10:27:32;;;;;;;10.13;4.03;;;;;;;22.24;46.96;100479.77;1683128;83;21109;-74
2022/09/08 10:30:11;;;;;;;8.75;4.10;;;;;;;22.04;46.76;100479.26;1682622;84;21847;-72
2022/09/08 10:33:05;;;;;;;7.90;4.42;;;;;;;21.65;47.02;100473.83;1661737;84;21026;-72
2022/09/08 10:35:43;;;;;;;8.75;4.72;;;;;;;21.34;47.73;100475.47;1698088;83;21015;-74
2022/09/08 10:38:49;;;;;;;12.82;5.20;;;;;;;21.17;48.27;100481.53;1723452;83;21021;-74
2022/09/08 10:41:40;;;;;;;11.10;4.40;;;;;;;21.04;48.50;100480.86;1699170;83;21089;-74
2022/09/08 10:44:21;;;;;;;9.08;4.47;;;;;;;21.12;49.25;100482.59;1697458;83;21813;-74
2022/09/08 10:47:11;;;;;;;7.15;4.72;;;;;;;21.40;48.41;100481.41;1660075;83;21056;-73
2022/09/08 10:50:07;;;;;;;11.33;5.50;;;;;;;21.42;47.73;100478.02;1676656;84;21046;-72
2022/09/08 10:53:08;;;;;;;11.10;4.78;;;;;;;21.15;48.27;100482.23;1671156;84;22175;-72
2022/09/08 10:56:01;;;;;;;11.48;4.28;;;;;;;21.04;49.08;100482.20;1690343;84;21062;-72
2022/09/08 10:58:59;;;;;;;8.18;3.80;;;;;;;21.08;49.43;100485.34;1671226;84;22656;-73
2022/09/08 11:02:02;;;;;;;9.45;4.58;;;;;;;21.06;49.20;100481.50;1680675;83;21053;-72
2022/09/08 11:04:40;;;;;;;7.70;4.47;;;;;;;20.94;48.98;100480.80;1673909;84;21495;-73
2022/09/08 11:07:46;;;;;;;10.95;4.20;;;;;;;20.92;49.48;100483.67;1689316;83;21068;-73
2022/09/08 11:10:45;;;;;;;9.63;4.40;;;;;;;20.95;49.56;100477.13;1670986;85;20959;-73
2022/09/08 11:13:33;;;;;;;14.10;4.50;;;;;;;21.01;49.59;100480.38;1664207;85;22891;-72
2022/09/08 11:16:32;;;;;;;10.45;4.42;;;;;;;21.04;49.41;100480.03;1665599;84;21107;-73
2022/09/08 11:19:23;;;;;;;5.87;3.87;;;;;;;20.98;49.47;100486.97;1686379;84;21453;-73
2022/09/08 11:22:45;;;;;;;11.85;4.00;;;;;;;20.97;49.61;100485.81;1682332;84;21554;-72
2022/09/08 11:25:43;;;;;;;11.45;3.92;;;;;;;20.97;49.44;100495.22;1677873;84;21038;-72
2022/09/08 11:28:47;;;;;;;11.30;4.50;;;;;;;20.87;49.62;100482.08;1681153;84;22049;-73
2022/09/08 11:31:34;;;;;;;9.10;3.85;;;;;;;20.85;49.96;100494.34;1677503;84;22242;-74
2022/09/08 11:34:28;;;;;;;8.38;4.05;;;;;;;20.85;49.88;100486.80;1687207;84;21549;-72
2022/09/08 11:37:18;;;;;;;8.25;4.20;;;;;;;20.88;49.85;100483.73;1685451;85;21058;-71
2022/09/08 11:40:10;;;;;;;9.25;4.30;;;;;;;20.94;49.37;100476.30;1677789;85;21122;-71
2022/09/08 11:43:18;;;;;;;7.92;4.00;;;;;;;21.03;49.50;100475.14;1679742;84;21849;-71
2022/09/08 11:46:02;;;;;;;6.58;3.70;;;;;;;21.16;48.85;100469.12;1685723;84;21000;-72
2022/09/08 11:49:25;;;;;;;9.98;5.67;;;;;;;21.11;48.66;100469.67;1666807;85;21655;-71
2022/09/08 11:52:10;;;;;;;10.88;4.60;;;;;;;21.08;49.10;100464.69;1658604;85;21003;-73
2022/09/08 11:54:50;;;;;;;7.78;4.28;;;;;;;21.04;49.23;100458.03;1672816;85;21083;-73
2022/09/08 11:57:26;;;;;;;7.47;4.20;;;;;;;20.96;49.13;100457.30;1670498;85;21777;-72
2022/09/08 12:00:14;;;;;;;8.23;3.92;;;;;;;20.77;49.25;100453.34;1661824;85;21020;-70
2022/09/08 12:02:55;;;;;;;10.72;4.25;;;;;;;20.64;49.67;100463.36;1663155;83;21340;-71
2022/09/08 12:05:47;;;;;;;9.38;4.17;;;;;;;20.53;49.83;100467.34;1684500;84;21120;-70
2022/09/08 12:08:52;;;;;;;7.85;3.98;;;;;;;20.44;50.08;100468.44;1669219;84;21452;-73
2022/09/08 12:11:41;;;;;;;6.75;3.72;;;;;;;20.41;50.30;100469.30;1669911;85;21031;-73
2022/09/08 12:14:26;;;;;;;8.73;3.92;;;;;;;20.37;50.28;100465.33;1635514;86;21429;-72
2022/09/08 12:17:19;;;;;;;9.75;4.30;;;;;;;20.37;50.33;100455.42;1670931;85;20987;-73
2022/09/08 12:19:57;;;;;;;9.38;4.72;;;;;;;20.41;50.59;100457.22;1662385;84;21577;-73